sensor_id;sensor_type;location;lat;lon;timestamp;pressure;altitude;pressure_sealevel;temperature;humidity
67052;BME280;53957;47.222;18.670;2023-08-20T02:36:39;100483.31;;;17.65;100.00
67052;BME280;53957;47.222;18.670;2023-08-20T02:39:42;100483.34;;;17.57;100.00
67052;BME280;53957;47.222;18.670;2023-08-20T02:42:45;100484.25;;;17.69;100.00
67052;BME280;53957;47.222;18.670;2023-08-20T02:45:48;100486.81;;;17.66;100.00
67052;BME280;53957;47.222;18.670;2023-08-20T02:48:52;100485.38;;;17.68;100.00
67052;BME280;53957;47.222;18.670;2023-08-20T02:51:55;100475.69;;;17.67;100.00
67052;BME280;53957;47.222;18.670;2023-08-20T02:54:58;100483.16;;;17.70;100.00
67052;BME280;53957;47.222;18.670;2023-08-20T02:58:02;100481.47;;;17.57;100.00
67052;BME280;53957;47.222;18.670;2023-08-20T03:01:06;100484.16;;;17.57;100.00
67052;BME280;53957;47.222;18.670;2023-08-20T03:04:10;100485.13;;;17.52;100.00
67052;BME280;53957;47.222;18.670;2023-08-20T03:07:12;100488.56;;;17.62;100.00
67052;BME280;53957;47.222;18.670;2023-08-20T03:10:16;100490.94;;;17.63;100.00
67052;BME280;53957;47.222;18.670;2023-08-20T03:13:18;100491.94;;;17.50;100.00
67052;BME280;53957;47.222;18.670;2023-08-20T03:16:21;100497.34;;;17.50;100.00
67052;BME280;53957;47.222;18.670;2023-08-20T03:19:24;100493.34;;;17.56;100.00
67052;BME280;53957;47.222;18.670;2023-08-20T03:22:27;100496.22;;;17.51;100.00
67052;BME280;53957;47.222;18.670;2023-08-20T03:25:30;100486.84;;;17.57;100.00
67052;BME280;53957;47.222;18.670;2023-08-20T03:28:33;100484.94;;;17.58;100.00
67052;BME280;53957;47.222;18.670;2023-08-20T03:31:36;100486.66;;;17.62;100.00
67052;BME280;53957;47.222;18.670;2023-08-20T03:34:39;100500.63;;;17.55;100.00
67052;BME280;53957;47.222;18.670;2023-08-20T03:37:42;100499.84;;;17.55;100.00
67052;BME280;53957;47.222;18.670;2023-08-20T03:40:45;100501.16;;;17.49;100.00
67052;BME280;53957;47.222;18.670;2023-08-20T03:43:48;100503.38;;;17.47;100.00
67052;BME280;53957;47.222;18.670;2023-08-20T03:46:53;100504.16;;;17.56;100.00
67052;BME280;53957;47.222;18.670;2023-08-20T03:49:56;100505.09;;;17.51;100.00
67052;BME280;53957;47.222;18.670;2023-08-20T03:52:59;100508.72;;;17.55;100.00
67052;BME280;53957;47.222;18.670;2023-08-20T03:56:02;100511.56;;;17.59;100.00
67052;BME280;53957;47.222;18.670;2023-08-20T03:59:07;100526.81;;;17.55;100.00
67052;BME280;53957;47.222;18.670;2023-08-20T04:02:10;100517.22;;;17.75;100.00
67052;BME280;53957;47.222;18.670;2023-08-20T04:05:14;100529.47;;;17.73;100.00
67052;BME280;53957;47.222;18.670;2023-08-20T04:08:16;100524.91;;;17.64;100.00
67052;BME280;53957;47.222;18.670;2023-08-20T04:11:20;100529.78;;;17.71;100.00
67052;BME280;53957;47.222;18.670;2023-08-20T04:14:43;100532.69;;;17.57;100.00
67052;BME280;53957;47.222;18.670;2023-08-20T04:17:46;100531.44;;;17.54;100.00
67052;BME280;53957;47.222;18.670;2023-08-20T04:20:52;100534.84;;;17.73;100.00
67052;BME280;53957;47.222;18.670;2023-08-20T04:23:55;100539.59;;;17.84;100.00
67052;BME280;53957;47.222;18.670;2023-08-20T04:26:59;100538.91;;;17.87;100.00
67052;BME280;53957;47.222;18.670;2023-08-20T04:30:02;100548.75;;;17.92;100.00
67052;BME280;53957;47.222;18.670;2023-08-20T04:33:05;100545.25;;;18.00;100.00
67052;BME280;53957;47.222;18.670;2023-08-20T04:36:09;100540.31;;;18.02;100.00
67052;BME280;53957;47.222;18.670;2023-08-20T04:39:13;100540.44;;;18.06;100.00
67052;BME280;53957;47.222;18.670;2023-08-20T04:42:17;100539.13;;;18.21;100.00
67052;BME280;53957;47.222;18.670;2023-08-20T04:45:20;100538.06;;;18.34;100.00
67052;BME280;53957;47.222;18.670;2023-08-20T04:48:23;100539.44;;;18.49;100.00
67052;BME280;53957;47.222;18.670;2023-08-20T04:51:26;100542.25;;;18.53;100.00
67052;BME280;53957;47.222;18.670;2023-08-20T04:54:29;100548.59;;;18.57;100.00
67052;BME280;53957;47.222;18.670;2023-08-20T04:57:32;100549.91;;;18.72;100.00
67052;BME280;53957;47.222;18.670;2023-08-20T05:00:36;100548.34;;;18.92;100.00
67052;BME280;53957;47.222;18.670;2023-08-20T05:03:43;100559.37;;;19.21;100.00
67052;BME280;53957;47.222;18.670;2023-08-20T05:06:46;100566.06;;;19.36;100.00
67052;BME280;53957;47.222;18.670;2023-08-20T05:09:49;100566.34;;;19.55;100.00
67052;BME280;53957;47.222;18.670;2023-08-20T05:12:52;100566.44;;;19.92;100.00
67052;BME280;53957;47.222;18.670;2023-08-20T05:15:56;100570.19;;;20.13;100.00
67052;BME280;53957;47.222;18.670;2023-08-20T05:19:00;100562.94;;;20.29;100.00
67052;BME280;53957;47.222;18.670;2023-08-20T05:22:04;100575.66;;;20.66;100.00
67052;BME280;53957;47.222;18.670;2023-08-20T05:25:08;100580.34;;;20.94;100.00
67052;BME280;53957;47.222;18.670;2023-08-20T05:28:12;100573.00;;;20.94;100.00
67052;BME280;53957;47.222;18.670;2023-08-20T05:31:15;100574.09;;;21.05;100.00
67052;BME280;53957;47.222;18.670;2023-08-20T05:34:21;100572.75;;;21.28;100.00
67052;BME280;53957;47.222;18.670;2023-08-20T05:37:24;100570.94;;;21.48;100.00
67052;BME280;53957;47.222;18.670;2023-08-20T05:40:27;100569.66;;;21.58;100.00
67052;BME280;53957;47.222;18.670;2023-08-20T05:43:30;100579.81;;;21.77;100.00
67052;BME280;53957;47.222;18.670;2023-08-20T05:46:32;100587.19;;;22.08;100.00
67052;BME280;53957;47.222;18.670;2023-08-20T05:49:36;100585.84;;;22.34;100.00
67052;BME280;53957;47.222;18.670;2023-08-20T05:52:38;100592.84;;;22.51;100.00
67052;BME280;53957;47.222;18.670;2023-08-20T05:55:42;100589.16;;;22.79;100.00
67052;BME280;53957;47.222;18.670;2023-08-20T05:58:45;100591.66;;;22.88;100.00
67052;BME280;53957;47.222;18.670;2023-08-20T06:01:48;100594.66;;;23.02;100.00
67052;BME280;53957;47.222;18.670;2023-08-20T06:04:51;100594.53;;;22.95;100.00
67052;BME280;53957;47.222;18.670;2023-08-20T06:07:54;100601.47;;;23.51;100.00
67052;BME280;53957;47.222;18.670;2023-08-20T06:10:58;100608.38;;;23.68;100.00
67052;BME280;53957;47.222;18.670;2023-08-20T06:14:00;100605.34;;;23.73;100.00
67052;BME280;53957;47.222;18.670;2023-08-20T06:17:04;100606.69;;;23.40;100.00
67052;BME280;53957;47.222;18.670;2023-08-20T06:20:07;100611.22;;;23.99;100.00
67052;BME280;53957;47.222;18.670;2023-08-20T06:23:11;100616.97;;;24.17;100.00
67052;BME280;53957;47.222;18.670;2023-08-20T06:26:29;100611.75;;;24.31;100.00
67052;BME280;53957;47.222;18.670;2023-08-20T06:29:32;100613.44;;;24.43;100.00
67052;BME280;53957;47.222;18.670;2023-08-20T06:32:35;100612.03;;;24.26;100.00
67052;BME280;53957;47.222;18.670;2023-08-20T06:35:39;100608.88;;;24.51;100.00
67052;BME280;53957;47.222;18.670;2023-08-20T06:38:41;100607.63;;;24.71;100.00
67052;BME280;53957;47.222;18.670;2023-08-20T06:41:45;100600.28;;;24.75;100.00
67052;BME280;53957;47.222;18.670;2023-08-20T06:44:51;100608.72;;;24.97;100.00
67052;BME280;53957;47.222;18.670;2023-08-20T06:47:54;100606.31;;;25.26;100.00
67052;BME280;53957;47.222;18.670;2023-08-20T06:50:57;100604.78;;;25.66;100.00
67052;BME280;53957;47.222;18.670;2023-08-20T06:54:01;100597.41;;;25.70;100.00
67052;BME280;53957;47.222;18.670;2023-08-20T06:57:04;100599.53;;;25.88;100.00
67052;BME280;53957;47.222;18.670;2023-08-20T07:00:08;100599.91;;;25.90;100.00
67052;BME280;53957;47.222;18.670;2023-08-20T07:03:10;100602.94;;;26.23;100.00
67052;BME280;53957;47.222;18.670;2023-08-20T07:06:14;100608.84;;;26.35;100.00
67052;BME280;53957;47.222;18.670;2023-08-20T07:09:18;100604.62;;;26.49;100.00
67052;BME280;53957;47.222;18.670;2023-08-20T07:12:21;100608.72;;;26.84;100.00
67052;BME280;53957;47.222;18.670;2023-08-20T07:15:24;100606.81;;;26.92;100.00
67052;BME280;53957;47.222;18.670;2023-08-20T07:18:27;100613.50;;;27.09;100.00
67052;BME280;53957;47.222;18.670;2023-08-20T08:05:41;100629.50;;;29.02;90.25
67052;BME280;53957;47.222;18.670;2023-08-20T08:08:44;100630.44;;;29.51;89.64
67052;BME280;53957;47.222;18.670;2023-08-20T08:11:52;100628.75;;;29.68;94.58
67052;BME280;53957;47.222;18.670;2023-08-20T08:14:55;100630.63;;;29.79;95.05
67052;BME280;53957;47.222;18.670;2023-08-20T08:17:57;100635.34;;;30.24;95.75
67052;BME280;53957;47.222;18.670;2023-08-20T08:21:00;100618.41;;;29.83;95.41
67052;BME280;53957;47.222;18.670;2023-08-20T08:24:05;100631.56;;;30.10;91.52
67052;BME280;53957;47.222;18.670;2023-08-20T08:27:08;100627.66;;;30.04;87.14
67052;BME280;53957;47.222;18.670;2023-08-20T08:30:11;100634.06;;;30.35;87.15
67052;BME280;53957;47.222;18.670;2023-08-20T08:33:14;100626.84;;;30.11;87.41
67052;BME280;53957;47.222;18.670;2023-08-20T08:36:17;100623.31;;;30.10;89.48
67052;BME280;53957;47.222;18.670;2023-08-20T08:39:20;100636.03;;;30.35;83.92
67052;BME280;53957;47.222;18.670;2023-08-20T08:42:23;100623.72;;;30.05;87.36
67052;BME280;53957;47.222;18.670;2023-08-20T08:45:26;100627.81;;;30.31;85.62
67052;BME280;53957;47.222;18.670;2023-08-20T08:48:30;100620.94;;;30.50;85.04
67052;BME280;53957;47.222;18.670;2023-08-20T08:51:33;100631.41;;;30.25;85.82
67052;BME280;53957;47.222;18.670;2023-08-20T08:54:36;100638.50;;;30.22;79.64
67052;BME280;53957;47.222;18.670;2023-08-20T08:57:39;100632.84;;;30.40;74.70
67052;BME280;53957;47.222;18.670;2023-08-20T09:00:42;100636.28;;;30.48;81.91
67052;BME280;53957;47.222;18.670;2023-08-20T09:03:46;100631.72;;;30.72;80.67
67052;BME280;53957;47.222;18.670;2023-08-20T09:06:51;100636.22;;;30.90;75.38
67052;BME280;53957;47.222;18.670;2023-08-20T09:09:59;100636.47;;;30.99;75.16
67052;BME280;53957;47.222;18.670;2023-08-20T09:13:03;100644.25;;;31.39;74.37
67052;BME280;53957;47.222;18.670;2023-08-20T09:16:08;100640.25;;;31.71;78.19
67052;BME280;53957;47.222;18.670;2023-08-20T09:19:11;100643.06;;;31.67;75.03
67052;BME280;53957;47.222;18.670;2023-08-20T09:22:15;100645.53;;;31.58;72.03
67052;BME280;53957;47.222;18.670;2023-08-20T09:25:18;100644.75;;;31.85;72.86
67052;BME280;53957;47.222;18.670;2023-08-20T09:28:21;100639.16;;;31.64;74.15
67052;BME280;53957;47.222;18.670;2023-08-20T09:31:38;100638.28;;;31.71;68.23
67052;BME280;53957;47.222;18.670;2023-08-20T09:34:46;100642.59;;;31.96;63.83
67052;BME280;53957;47.222;18.670;2023-08-20T09:37:50;100630.28;;;32.24;63.94
67052;BME280;53957;47.222;18.670;2023-08-20T09:40:54;100630.59;;;32.30;66.72
67052;BME280;53957;47.222;18.670;2023-08-20T09:43:59;100635.47;;;32.83;63.53
67052;BME280;53957;47.222;18.670;2023-08-20T09:47:06;100642.97;;;32.62;56.44
67052;BME280;53957;47.222;18.670;2023-08-20T09:50:11;100639.66;;;32.71;58.32
67052;BME280;53957;47.222;18.670;2023-08-20T09:53:32;100641.94;;;32.76;56.72
67052;BME280;53957;47.222;18.670;2023-08-20T09:56:39;100637.66;;;32.91;61.74
67052;BME280;53957;47.222;18.670;2023-08-20T09:59:42;100628.31;;;32.85;61.60
67052;BME280;53957;47.222;18.670;2023-08-20T10:02:45;100627.19;;;32.83;60.57
67052;BME280;53957;47.222;18.670;2023-08-20T10:05:49;100623.31;;;32.60;61.08
67052;BME280;53957;47.222;18.670;2023-08-20T10:08:53;100624.59;;;33.12;60.49
67052;BME280;53957;47.222;18.670;2023-08-20T10:11:56;100622.44;;;33.20;58.10
67052;BME280;53957;47.222;18.670;2023-08-20T10:15:01;100610.97;;;32.85;58.52
67052;BME280;53957;47.222;18.670;2023-08-20T10:18:04;100620.22;;;33.31;59.27
67052;BME280;53957;47.222;18.670;2023-08-20T10:21:08;100613.78;;;33.01;61.17
67052;BME280;53957;47.222;18.670;2023-08-20T10:24:18;100616.94;;;32.83;62.13
67052;BME280;53957;47.222;18.670;2023-08-20T10:27:32;100623.25;;;33.00;58.90
67052;BME280;53957;47.222;18.670;2023-08-20T10:30:36;100618.91;;;33.19;56.27
67052;BME280;53957;47.222;18.670;2023-08-20T10:33:49;100608.31;;;33.34;55.63
67052;BME280;53957;47.222;18.670;2023-08-20T10:36:54;100609.81;;;33.19;56.00
67052;BME280;53957;47.222;18.670;2023-08-20T10:39:57;100610.78;;;33.29;58.52
67052;BME280;53957;47.222;18.670;2023-08-20T10:43:01;100608.25;;;33.38;56.55
67052;BME280;53957;47.222;18.670;2023-08-20T10:49:37;100594.09;;;32.99;59.76
67052;BME280;53957;47.222;18.670;2023-08-20T10:52:55;100601.94;;;33.37;57.08
67052;BME280;53957;47.222;18.670;2023-08-20T11:02:24;100589.75;;;33.35;54.68
67052;BME280;53957;47.222;18.670;2023-08-20T11:05:28;100586.78;;;33.09;57.19
67052;BME280;53957;47.222;18.670;2023-08-20T11:08:34;100590.19;;;33.66;50.54
67052;BME280;53957;47.222;18.670;2023-08-20T11:11:38;100582.19;;;33.02;51.17
67052;BME280;53957;47.222;18.670;2023-08-20T11:14:43;100585.22;;;33.08;51.21
67052;BME280;53957;47.222;18.670;2023-08-20T11:17:47;100578.38;;;33.13;51.89
67052;BME280;53957;47.222;18.670;2023-08-20T11:20:54;100573.44;;;33.04;51.84
67052;BME280;53957;47.222;18.670;2023-08-20T11:24:02;100579.31;;;32.89;46.37
67052;BME280;53957;47.222;18.670;2023-08-20T11:28:15;100573.72;;;33.26;48.57
67052;BME280;53957;47.222;18.670;2023-08-20T11:32:00;100566.41;;;33.36;52.57
67052;BME280;53957;47.222;18.670;2023-08-20T11:35:07;100567.03;;;33.60;52.14
67052;BME280;53957;47.222;18.670;2023-08-20T11:38:10;100571.66;;;33.80;49.77
67052;BME280;53957;47.222;18.670;2023-08-20T11:41:16;100556.63;;;33.64;50.61
67052;BME280;53957;47.222;18.670;2023-08-20T11:44:21;100562.25;;;33.77;53.35
67052;BME280;53957;47.222;18.670;2023-08-20T11:47:27;100562.69;;;33.59;53.65
67052;BME280;53957;47.222;18.670;2023-08-20T11:51:02;100558.28;;;33.78;50.13
67052;BME280;53957;47.222;18.670;2023-08-20T11:54:19;100563.69;;;33.82;48.33
67052;BME280;53957;47.222;18.670;2023-08-20T11:57:22;100555.69;;;33.71;43.76
67052;BME280;53957;47.222;18.670;2023-08-20T12:00:30;100548.38;;;33.31;48.95
67052;BME280;53957;47.222;18.670;2023-08-20T12:03:33;100544.75;;;33.80;46.39
67052;BME280;53957;47.222;18.670;2023-08-20T12:06:37;100545.75;;;33.57;50.73
67052;BME280;53957;47.222;18.670;2023-08-20T12:09:41;100555.69;;;33.21;53.74
67052;BME280;53957;47.222;18.670;2023-08-20T12:12:48;100551.31;;;33.41;47.28
67052;BME280;53957;47.222;18.670;2023-08-20T12:15:51;100545.03;;;33.69;53.13
67052;BME280;53957;47.222;18.670;2023-08-20T12:18:54;100547.25;;;33.45;55.00
67052;BME280;53957;47.222;18.670;2023-08-20T12:21:59;100545.41;;;33.22;50.38
67052;BME280;53957;47.222;18.670;2023-08-20T12:25:03;100541.69;;;33.62;50.00
67052;BME280;53957;47.222;18.670;2023-08-20T12:28:05;100547.31;;;33.75;50.20
67052;BME280;53957;47.222;18.670;2023-08-20T12:31:09;100540.72;;;33.85;50.80
67052;BME280;53957;47.222;18.670;2023-08-20T12:34:15;100539.84;;;33.88;48.01
67052;BME280;53957;47.222;18.670;2023-08-20T12:37:19;100544.25;;;33.85;49.29
67052;BME280;53957;47.222;18.670;2023-08-20T12:40:22;100540.72;;;34.14;48.81
67052;BME280;53957;47.222;18.670;2023-08-20T12:43:25;100532.06;;;33.83;51.35
67052;BME280;53957;47.222;18.670;2023-08-20T12:46:35;100540.41;;;33.17;57.18
67052;BME280;53957;47.222;18.670;2023-08-20T12:49:38;100537.47;;;33.24;50.63
67052;BME280;53957;47.222;18.670;2023-08-20T12:52:43;100530.19;;;33.63;51.83
67052;BME280;53957;47.222;18.670;2023-08-20T12:55:50;100524.34;;;33.45;50.70
67052;BME280;53957;47.222;18.670;2023-08-20T12:58:53;100519.34;;;33.56;53.40
67052;BME280;53957;47.222;18.670;2023-08-20T13:01:56;100523.44;;;33.81;52.95
67052;BME280;53957;47.222;18.670;2023-08-20T14:22:37;100475.03;;;32.77;49.24
67052;BME280;53957;47.222;18.670;2023-08-20T14:25:41;100475.50;;;32.72;50.42
67052;BME280;53957;47.222;18.670;2023-08-20T14:28:44;100481.22;;;32.44;50.42
67052;BME280;53957;47.222;18.670;2023-08-20T14:31:47;100470.25;;;32.61;51.55
67052;BME280;53957;47.222;18.670;2023-08-20T14:34:50;100475.38;;;32.42;47.33
67052;BME280;53957;47.222;18.670;2023-08-20T14:37:53;100479.34;;;32.41;50.45
67052;BME280;53957;47.222;18.670;2023-08-20T14:41:00;100466.38;;;32.18;51.10
67052;BME280;53957;47.222;18.670;2023-08-20T14:44:06;100477.84;;;32.37;49.33
67052;BME280;53957;47.222;18.670;2023-08-20T14:47:10;100469.28;;;32.68;46.86
67052;BME280;53957;47.222;18.670;2023-08-20T14:50:15;100474.47;;;32.29;48.96
67052;BME280;53957;47.222;18.670;2023-08-20T14:53:18;100467.91;;;32.23;49.86
67052;BME280;53957;47.222;18.670;2023-08-20T14:56:22;100467.94;;;32.19;47.78
67052;BME280;53957;47.222;18.670;2023-08-20T14:59:24;100467.25;;;31.75;55.37
67052;BME280;53957;47.222;18.670;2023-08-20T15:02:29;100469.81;;;31.62;56.49
67052;BME280;53957;47.222;18.670;2023-08-20T15:05:32;100467.69;;;31.73;56.21
67052;BME280;53957;47.222;18.670;2023-08-20T15:08:35;100466.31;;;31.82;59.56
67052;BME280;53957;47.222;18.670;2023-08-20T15:11:38;100463.59;;;32.02;57.98
67052;BME280;53957;47.222;18.670;2023-08-20T15:14:42;100466.97;;;31.89;54.90
67052;BME280;53957;47.222;18.670;2023-08-20T15:17:45;100453.87;;;31.73;56.71
67052;BME280;53957;47.222;18.670;2023-08-20T15:20:55;100456.03;;;31.62;59.36
67052;BME280;53957;47.222;18.670;2023-08-20T15:23:58;100465.34;;;31.92;57.52
67052;BME280;53957;47.222;18.670;2023-08-20T15:27:02;100460.69;;;31.45;56.24
67052;BME280;53957;47.222;18.670;2023-08-20T15:30:06;100461.81;;;31.24;61.40
67052;BME280;53957;47.222;18.670;2023-08-20T15:33:11;100446.59;;;30.92;60.01
67052;BME280;53957;47.222;18.670;2023-08-20T15:36:18;100454.41;;;30.93;59.42
67052;BME280;53957;47.222;18.670;2023-08-20T15:39:21;100455.59;;;30.92;59.75
67052;BME280;53957;47.222;18.670;2023-08-20T15:42:24;100446.91;;;30.70;62.04
67052;BME280;53957;47.222;18.670;2023-08-20T15:45:27;100447.37;;;30.65;63.04
67052;BME280;53957;47.222;18.670;2023-08-20T15:48:30;100450.00;;;30.45;61.56
67052;BME280;53957;47.222;18.670;2023-08-20T15:51:34;100446.19;;;30.35;59.77
67052;BME280;53957;47.222;18.670;2023-08-20T15:54:38;100446.38;;;30.20;63.34
67052;BME280;53957;47.222;18.670;2023-08-20T15:57:42;100447.72;;;30.36;62.56
67052;BME280;53957;47.222;18.670;2023-08-20T16:00:45;100448.88;;;30.08;63.98
67052;BME280;53957;47.222;18.670;2023-08-20T16:03:51;100451.25;;;30.06;65.63
67052;BME280;53957;47.222;18.670;2023-08-20T16:06:56;100440.34;;;29.98;63.27
67052;BME280;53957;47.222;18.670;2023-08-20T16:10:01;100444.66;;;29.99;63.03
67052;BME280;53957;47.222;18.670;2023-08-20T16:13:04;100442.41;;;29.91;66.04
67052;BME280;53957;47.222;18.670;2023-08-20T16:16:07;100447.13;;;29.86;65.03
67052;BME280;53957;47.222;18.670;2023-08-20T16:19:10;100440.28;;;29.67;69.05
67052;BME280;53957;47.222;18.670;2023-08-20T16:22:16;100444.66;;;29.61;68.59
67052;BME280;53957;47.222;18.670;2023-08-20T16:25:20;100448.62;;;29.56;71.92
67052;BME280;53957;47.222;18.670;2023-08-20T16:28:23;100450.78;;;29.34;72.77
67052;BME280;53957;47.222;18.670;2023-08-20T16:31:26;100450.75;;;29.38;74.73
67052;BME280;53957;47.222;18.670;2023-08-20T16:34:30;100450.81;;;29.31;74.06
67052;BME280;53957;47.222;18.670;2023-08-20T16:37:32;100456.38;;;29.20;74.64
67052;BME280;53957;47.222;18.670;2023-08-20T16:40:40;100458.78;;;29.14;74.85
67052;BME280;53957;47.222;18.670;2023-08-20T16:43:42;100458.06;;;29.06;76.31
67052;BME280;53957;47.222;18.670;2023-08-20T16:46:46;100452.66;;;28.96;79.26
67052;BME280;53957;47.222;18.670;2023-08-20T16:49:49;100452.19;;;29.04;75.79
67052;BME280;53957;47.222;18.670;2023-08-20T16:52:52;100455.06;;;28.83;79.86
67052;BME280;53957;47.222;18.670;2023-08-20T16:55:55;100458.63;;;28.83;80.18
67052;BME280;53957;47.222;18.670;2023-08-20T16:58:59;100462.97;;;28.77;79.83
67052;BME280;53957;47.222;18.670;2023-08-20T17:02:02;100466.91;;;28.72;78.88
67052;BME280;53957;47.222;18.670;2023-08-20T17:05:07;100465.03;;;28.58;80.96
67052;BME280;53957;47.222;18.670;2023-08-20T17:08:10;100465.41;;;28.53;82.58
67052;BME280;53957;47.222;18.670;2023-08-20T17:11:13;100460.03;;;28.39;85.62
67052;BME280;53957;47.222;18.670;2023-08-20T17:14:20;100462.75;;;28.39;86.74
67052;BME280;53957;47.222;18.670;2023-08-20T17:17:27;100466.41;;;28.14;88.31
67052;BME280;53957;47.222;18.670;2023-08-20T17:20:35;100460.91;;;28.03;87.86
67052;BME280;53957;47.222;18.670;2023-08-20T17:23:39;100463.28;;;27.90;89.91
67052;BME280;53957;47.222;18.670;2023-08-20T17:26:45;100468.81;;;27.83;91.05
67052;BME280;53957;47.222;18.670;2023-08-20T17:29:49;100470.75;;;27.72;95.76
67052;BME280;53957;47.222;18.670;2023-08-20T17:32:51;100463.75;;;27.60;95.17
67052;BME280;53957;47.222;18.670;2023-08-20T17:35:59;100460.63;;;27.51;97.75
67052;BME280;53957;47.222;18.670;2023-08-20T17:39:04;100465.31;;;27.36;100.00
67052;BME280;53957;47.222;18.670;2023-08-20T17:42:08;100463.75;;;27.20;100.00
67052;BME280;53957;47.222;18.670;2023-08-20T17:45:11;100466.88;;;27.08;100.00
67052;BME280;53957;47.222;18.670;2023-08-20T17:48:17;100468.00;;;26.92;100.00
67052;BME280;53957;47.222;18.670;2023-08-20T17:51:20;100474.63;;;26.80;100.00
67052;BME280;53957;47.222;18.670;2023-08-20T17:54:23;100464.00;;;26.64;100.00
67052;BME280;53957;47.222;18.670;2023-08-20T17:57:27;100464.34;;;26.41;100.00
67052;BME280;53957;47.222;18.670;2023-08-20T18:00:30;100462.31;;;26.16;100.00
67052;BME280;53957;47.222;18.670;2023-08-20T18:03:34;100468.84;;;26.04;100.00
67052;BME280;53957;47.222;18.670;2023-08-20T18:06:37;100461.75;;;25.96;100.00
67052;BME280;53957;47.222;18.670;2023-08-20T18:09:40;100458.16;;;25.81;100.00
67052;BME280;53957;47.222;18.670;2023-08-20T18:12:43;100463.19;;;25.72;100.00
67052;BME280;53957;47.222;18.670;2023-08-20T18:15:47;100474.81;;;25.62;100.00
67052;BME280;53957;47.222;18.670;2023-08-20T18:18:51;100468.09;;;25.52;100.00
67052;BME280;53957;47.222;18.670;2023-08-20T18:21:54;100473.09;;;25.39;100.00
67052;BME280;53957;47.222;18.670;2023-08-20T18:24:57;100479.19;;;25.25;100.00
67052;BME280;53957;47.222;18.670;2023-08-20T18:28:00;100486.12;;;25.15;100.00
67052;BME280;53957;47.222;18.670;2023-08-20T18:31:03;100485.66;;;25.10;100.00
67052;BME280;53957;47.222;18.670;2023-08-20T18:34:06;100480.16;;;25.02;100.00
67052;BME280;53957;47.222;18.670;2023-08-20T18:37:12;100487.03;;;24.89;100.00
67052;BME280;53957;47.222;18.670;2023-08-20T18:40:15;100490.00;;;24.76;100.00
67052;BME280;53957;47.222;18.670;2023-08-20T18:43:18;100493.03;;;24.68;100.00
67052;BME280;53957;47.222;18.670;2023-08-20T18:46:21;100493.06;;;24.71;100.00
67052;BME280;53957;47.222;18.670;2023-08-20T18:49:25;100500.28;;;24.56;100.00
67052;BME280;53957;47.222;18.670;2023-08-20T18:52:32;100497.41;;;24.46;100.00
67052;BME280;53957;47.222;18.670;2023-08-20T18:55:45;100508.22;;;24.38;100.00
67052;BME280;53957;47.222;18.670;2023-08-20T18:58:51;100513.59;;;24.31;100.00
67052;BME280;53957;47.222;18.670;2023-08-20T19:01:56;100513.56;;;24.27;100.00
67052;BME280;53957;47.222;18.670;2023-08-20T19:04:59;100509.62;;;24.25;100.00
67052;BME280;53957;47.222;18.670;2023-08-20T19:08:03;100512.66;;;24.20;100.00
67052;BME280;53957;47.222;18.670;2023-08-20T19:11:07;100511.00;;;24.11;100.00
67052;BME280;53957;47.222;18.670;2023-08-20T19:14:13;100514.78;;;24.03;100.00
67052;BME280;53957;47.222;18.670;2023-08-20T19:17:16;100519.63;;;23.90;100.00
67052;BME280;53957;47.222;18.670;2023-08-20T19:20:19;100529.28;;;23.88;100.00
67052;BME280;53957;47.222;18.670;2023-08-20T19:23:22;100541.72;;;23.85;100.00
67052;BME280;53957;47.222;18.670;2023-08-20T19:26:26;100528.41;;;23.80;100.00
67052;BME280;53957;47.222;18.670;2023-08-20T19:29:29;100538.34;;;23.69;100.00
67052;BME280;53957;47.222;18.670;2023-08-20T19:32:37;100539.13;;;23.69;100.00
67052;BME280;53957;47.222;18.670;2023-08-20T19:35:42;100539.69;;;23.55;100.00
67052;BME280;53957;47.222;18.670;2023-08-20T19:38:47;100548.53;;;23.48;100.00
67052;BME280;53957;47.222;18.670;2023-08-20T19:41:51;100542.47;;;23.36;100.00
67052;BME280;53957;47.222;18.670;2023-08-20T19:44:54;100540.81;;;23.31;100.00
67052;BME280;53957;47.222;18.670;2023-08-20T19:47:58;100547.75;;;23.28;100.00
67052;BME280;53957;47.222;18.670;2023-08-20T19:51:01;100547.94;;;23.16;100.00
67052;BME280;53957;47.222;18.670;2023-08-20T19:54:05;100551.72;;;23.11;100.00
67052;BME280;53957;47.222;18.670;2023-08-20T19:57:11;100556.59;;;23.02;100.00
67052;BME280;53957;47.222;18.670;2023-08-20T20:00:15;100561.31;;;23.05;100.00
67052;BME280;53957;47.222;18.670;2023-08-20T20:03:18;100559.59;;;22.97;100.00
67052;BME280;53957;47.222;18.670;2023-08-20T20:06:22;100566.47;;;22.91;100.00
67052;BME280;53957;47.222;18.670;2023-08-20T20:09:27;100568.69;;;22.85;100.00
67052;BME280;53957;47.222;18.670;2023-08-20T20:12:32;100571.25;;;22.78;100.00
67052;BME280;53957;47.222;18.670;2023-08-20T20:15:35;100569.34;;;22.78;100.00
67052;BME280;53957;47.222;18.670;2023-08-20T20:18:38;100559.44;;;22.70;100.00
67052;BME280;53957;47.222;18.670;2023-08-20T20:21:42;100564.88;;;22.70;100.00
67052;BME280;53957;47.222;18.670;2023-08-20T20:24:47;100564.44;;;22.68;100.00
67052;BME280;53957;47.222;18.670;2023-08-20T20:27:50;100570.38;;;22.54;100.00
67052;BME280;53957;47.222;18.670;2023-08-20T20:30:54;100565.59;;;22.47;100.00
67052;BME280;53957;47.222;18.670;2023-08-20T20:34:01;100569.81;;;22.45;100.00